Skip Navigation Links
NOAA logo - Click to go to the NOAA homepage
NOAA's National Weather Service
Alaska Aviation Weather Unit
  NWS logo - Click to go to the NWS homepage
Left Navbar Graphic     02 AKDT = 10 GMT

   
NOAA is celebrating 200 years of science, service, and stewardship. Visit the NOAA 200th celebration Web site to learn more.
USA.gov is the U.S. Government's official Web portal to all Federal, state and local government Web resources and services.
Facebook
NWS on Facebook

AAWU Home :: Display TAF Add Bookmark
TAF PASD 270532Z 2706/2806 04011KT P6SM BKN035
      AMD LTD TO CLD VIS AND WIND=
METAR PASD 270416Z AUTO 03009G15KT 10SM BKN032 OVC045 01/M06 A2942 RMK
     AO1=

METAR PASD 270436Z AUTO 04008G15KT 010V080 10SM BKN032 OVC046 01/M06
     A2942 RMK AO1=

METAR PASD 270456Z AUTO 03007KT 10SM BKN032 OVC040 01/M06 A2942 RMK
     AO1=

PASD 270516Z AUTO 03007KT 10SM BKN032 OVC048 01/M05 A2941 RMK
     AO1=

METAR PASD 270536Z AUTO 03008G17KT 010V070 10SM BKN030 OVC048 01/M05
     A2941 RMK AO1=

METAR PASD 270556Z AUTO 03009G17KT 10SM BKN030 OVC048 01/M05 A2941 RMK
     AO1 10020 20010 57010=

METAR PASD 270616Z AUTO 04012G20KT 10SM BKN028 OVC048 01/M04 A2941
 RMK AO1=

METAR PASD 270636Z AUTO 04008G15KT 10SM BKN028 OVC046 01/M04 A2940
 RMK AO1=

METAR PASD 270656Z AUTO 04006KT 10SM BKN028 OVC032 01/M04 A2940 RMK
 AO1=

METAR PASD 270716Z AUTO 03010G23KT 10SM OVC028 01/M04 A2940 RMK AO1=

METAR PASD 270736Z AUTO 04007G18KT 010V070 10SM OVC028 01/M04 A2940 RMK
     AO1=

METAR PASD 270756Z AUTO 04004KT 10SM BKN026 OVC035 01/M03 A2940 RMK
     AO1=

METAR PASD 270816Z AUTO 03003KT 9SM FEW021 BKN025 OVC032 01/M03 A2940
     RMK AO1=

METAR PASD 270836Z AUTO 03006KT 10SM BKN029 BKN034 OVC049 01/M04 A2939
     RMK AO1=

METAR PASD 270916Z AUTO 04008G15KT 020V080 5SM FEW011 SCT017 OVC027
     01/M04 A2939 RMK AO1=

METAR PASD 270936Z AUTO 04004KT 10SM FEW014 BKN024 OVC039 00/M04 A2939
     RMK AO1=

METAR PASD 270956Z AUTO 04009KT 10SM BKN027 BKN032 OVC046 01/M04 A2938
     RMK AO1=

METAR PASD 271016Z AUTO 03007G16KT 10SM BKN027 OVC048 01/M04 A2938 RMK
     AO1=


NOAA's National Weather Service
Alaska Aviation Weather Unit
6930 Sand Lake Road
Anchorage, AK 99502-1845
Disclaimer
Credits
Glossary
Privacy Policy
About Us
Career Opportunities
Contact AAWU Internet Services Site last modified: April, 17th 2012